sensor_id;sensor_type;location;lat;lon;timestamp;pressure;altitude;pressure_sealevel;temperature;humidity
64095;BME280;50353;51.420;5.682;2023-04-06T00:00:42;101535.97;;;5.20;70.18
64095;BME280;50353;51.420;5.682;2023-04-06T00:03:08;101535.13;;;5.20;69.12
64095;BME280;50353;51.420;5.682;2023-04-06T00:05:33;101533.16;;;5.28;67.97
64095;BME280;50353;51.420;5.682;2023-04-06T00:07:58;101531.72;;;5.16;68.26
64095;BME280;50353;51.420;5.682;2023-04-06T00:10:24;101528.72;;;5.30;66.99
64095;BME280;50353;51.420;5.682;2023-04-06T00:12:49;101525.81;;;5.08;67.80
64095;BME280;50353;51.420;5.682;2023-04-06T00:15:15;101527.94;;;4.94;68.34
64095;BME280;50353;51.420;5.682;2023-04-06T00:17:40;101528.06;;;4.89;68.07
64095;BME280;50353;51.420;5.682;2023-04-06T00:20:06;101525.34;;;4.92;67.63
64095;BME280;50353;51.420;5.682;2023-04-06T00:22:32;101533.09;;;4.61;68.28
64095;BME280;50353;51.420;5.682;2023-04-06T00:24:57;101519.44;;;4.84;67.66
64095;BME280;50353;51.420;5.682;2023-04-06T00:27:22;101531.72;;;4.82;67.02
64095;BME280;50353;51.420;5.682;2023-04-06T00:29:48;101520.94;;;4.94;66.21
64095;BME280;50353;51.420;5.682;2023-04-06T00:32:13;101518.41;;;4.55;66.49
64095;BME280;50353;51.420;5.682;2023-04-06T00:34:38;101516.88;;;4.82;65.90
64095;BME280;50353;51.420;5.682;2023-04-06T00:37:03;101514.72;;;4.64;66.21
64095;BME280;50353;51.420;5.682;2023-04-06T00:39:29;101509.28;;;4.71;65.35
64095;BME280;50353;51.420;5.682;2023-04-06T00:41:55;101506.50;;;4.78;66.09
64095;BME280;50353;51.420;5.682;2023-04-06T00:44:21;101496.44;;;4.62;66.16
64095;BME280;50353;51.420;5.682;2023-04-06T00:46:47;101498.63;;;4.43;67.29
64095;BME280;50353;51.420;5.682;2023-04-06T00:49:12;101497.88;;;4.38;67.97
64095;BME280;50353;51.420;5.682;2023-04-06T00:51:37;101496.22;;;4.70;67.15
64095;BME280;50353;51.420;5.682;2023-04-06T00:54:03;101497.38;;;4.60;67.54
64095;BME280;50353;51.420;5.682;2023-04-06T00:56:28;101485.22;;;4.57;66.98
64095;BME280;50353;51.420;5.682;2023-04-06T00:58:53;101491.50;;;4.48;67.26
64095;BME280;50353;51.420;5.682;2023-04-06T01:01:19;101495.06;;;4.46;67.64
64095;BME280;50353;51.420;5.682;2023-04-06T01:03:45;101493.69;;;4.67;66.21
64095;BME280;50353;51.420;5.682;2023-04-06T01:06:13;101493.25;;;4.49;66.50
64095;BME280;50353;51.420;5.682;2023-04-06T01:08:38;101487.06;;;4.52;67.76
64095;BME280;50353;51.420;5.682;2023-04-06T01:11:04;101482.09;;;4.41;67.47
64095;BME280;50353;51.420;5.682;2023-04-06T01:13:31;101485.38;;;4.13;68.52
64095;BME280;50353;51.420;5.682;2023-04-06T01:15:56;101482.50;;;4.24;67.58
64095;BME280;50353;51.420;5.682;2023-04-06T01:18:26;101483.66;;;4.12;68.39
64095;BME280;50353;51.420;5.682;2023-04-06T01:20:51;101480.13;;;4.13;66.78
64095;BME280;50353;51.420;5.682;2023-04-06T01:23:17;101475.75;;;4.51;66.52
64095;BME280;50353;51.420;5.682;2023-04-06T01:25:42;101473.69;;;4.27;67.72
64095;BME280;50353;51.420;5.682;2023-04-06T01:28:07;101471.97;;;4.27;67.89
64095;BME280;50353;51.420;5.682;2023-04-06T01:30:32;101466.97;;;4.52;66.55
64095;BME280;50353;51.420;5.682;2023-04-06T01:32:58;101468.72;;;4.17;68.38
64095;BME280;50353;51.420;5.682;2023-04-06T01:35:23;101465.19;;;4.54;67.03
64095;BME280;50353;51.420;5.682;2023-04-06T01:37:48;101462.47;;;4.23;66.72
64095;BME280;50353;51.420;5.682;2023-04-06T01:40:14;101460.25;;;4.04;68.99
64095;BME280;50353;51.420;5.682;2023-04-06T01:42:40;101458.28;;;4.14;69.71
64095;BME280;50353;51.420;5.682;2023-04-06T01:45:05;101450.50;;;4.49;68.11
64095;BME280;50353;51.420;5.682;2023-04-06T01:47:31;101450.41;;;3.78;69.42
64095;BME280;50353;51.420;5.682;2023-04-06T01:49:56;101456.47;;;4.18;67.63
64095;BME280;50353;51.420;5.682;2023-04-06T01:52:21;101451.91;;;3.88;69.81
64095;BME280;50353;51.420;5.682;2023-04-06T01:54:47;101449.97;;;3.98;69.81
64095;BME280;50353;51.420;5.682;2023-04-06T01:57:12;101438.66;;;4.34;68.19
64095;BME280;50353;51.420;5.682;2023-04-06T01:59:37;101441.56;;;4.21;67.49
64095;BME280;50353;51.420;5.682;2023-04-06T02:02:03;101438.84;;;3.87;69.48
64095;BME280;50353;51.420;5.682;2023-04-06T02:04:28;101438.13;;;3.82;69.79
64095;BME280;50353;51.420;5.682;2023-04-06T02:06:53;101435.84;;;4.05;69.69
64095;BME280;50353;51.420;5.682;2023-04-06T02:09:18;101424.31;;;4.13;68.87
64095;BME280;50353;51.420;5.682;2023-04-06T02:11:44;101422.06;;;3.97;69.29
64095;BME280;50353;51.420;5.682;2023-04-06T02:14:09;101418.91;;;4.20;69.05
64095;BME280;50353;51.420;5.682;2023-04-06T02:16:34;101424.53;;;4.03;69.79
64095;BME280;50353;51.420;5.682;2023-04-06T02:19:00;101425.38;;;4.05;70.67
64095;BME280;50353;51.420;5.682;2023-04-06T02:21:25;101414.00;;;4.06;69.92
64095;BME280;50353;51.420;5.682;2023-04-06T02:23:50;101420.09;;;4.07;69.77
64095;BME280;50353;51.420;5.682;2023-04-06T02:26:15;101414.88;;;4.07;69.79
64095;BME280;50353;51.420;5.682;2023-04-06T02:28:41;101417.34;;;4.13;69.97
64095;BME280;50353;51.420;5.682;2023-04-06T02:31:08;101407.78;;;4.47;68.88
64095;BME280;50353;51.420;5.682;2023-04-06T02:33:33;101406.88;;;4.12;71.37
64095;BME280;50353;51.420;5.682;2023-04-06T02:35:58;101406.09;;;4.10;71.02
64095;BME280;50353;51.420;5.682;2023-04-06T02:38:24;101396.25;;;4.19;72.04
64095;BME280;50353;51.420;5.682;2023-04-06T02:40:49;101407.56;;;4.21;72.64
64095;BME280;50353;51.420;5.682;2023-04-06T02:43:15;101403.34;;;4.14;72.19
64095;BME280;50353;51.420;5.682;2023-04-06T02:45:42;101392.66;;;4.23;71.82
64095;BME280;50353;51.420;5.682;2023-04-06T02:48:07;101400.44;;;4.27;72.02
64095;BME280;50353;51.420;5.682;2023-04-06T02:50:32;101391.06;;;4.18;72.32
64095;BME280;50353;51.420;5.682;2023-04-06T02:52:57;101388.75;;;4.05;72.78
64095;BME280;50353;51.420;5.682;2023-04-06T02:55:23;101389.28;;;4.18;73.03
64095;BME280;50353;51.420;5.682;2023-04-06T02:57:48;101395.53;;;4.13;73.39
64095;BME280;50353;51.420;5.682;2023-04-06T03:00:14;101386.19;;;4.38;73.29
64095;BME280;50353;51.420;5.682;2023-04-06T03:02:39;101387.28;;;4.30;72.35
64095;BME280;50353;51.420;5.682;2023-04-06T03:05:05;101381.13;;;4.32;73.69
64095;BME280;50353;51.420;5.682;2023-04-06T03:07:30;101371.31;;;4.40;73.67
64095;BME280;50353;51.420;5.682;2023-04-06T03:09:55;101378.63;;;4.61;71.82
64095;BME280;50353;51.420;5.682;2023-04-06T03:12:21;101378.19;;;4.45;73.33
64095;BME280;50353;51.420;5.682;2023-04-06T03:14:46;101374.16;;;4.64;71.06
64095;BME280;50353;51.420;5.682;2023-04-06T03:17:11;101362.91;;;4.62;71.28
64095;BME280;50353;51.420;5.682;2023-04-06T03:19:37;101362.16;;;4.57;72.03
64095;BME280;50353;51.420;5.682;2023-04-06T03:22:02;101372.16;;;4.74;70.45
64095;BME280;50353;51.420;5.682;2023-04-06T03:24:27;101364.81;;;4.54;71.08
64095;BME280;50353;51.420;5.682;2023-04-06T03:26:53;101367.34;;;4.59;71.12
64095;BME280;50353;51.420;5.682;2023-04-06T03:29:18;101359.66;;;4.85;69.59
64095;BME280;50353;51.420;5.682;2023-04-06T03:31:43;101357.81;;;5.19;69.62
64095;BME280;50353;51.420;5.682;2023-04-06T03:34:08;101364.88;;;5.17;69.76
64095;BME280;50353;51.420;5.682;2023-04-06T03:36:34;101363.75;;;4.94;71.20
64095;BME280;50353;51.420;5.682;2023-04-06T03:39:00;101358.47;;;4.64;71.11
64095;BME280;50353;51.420;5.682;2023-04-06T03:41:25;101358.56;;;4.93;69.30
64095;BME280;50353;51.420;5.682;2023-04-06T03:43:51;101357.38;;;5.03;70.32
64095;BME280;50353;51.420;5.682;2023-04-06T03:46:16;101351.28;;;5.02;70.35
64095;BME280;50353;51.420;5.682;2023-04-06T03:48:42;101350.84;;;5.18;70.75
64095;BME280;50353;51.420;5.682;2023-04-06T03:51:07;101348.19;;;4.89;72.12
64095;BME280;50353;51.420;5.682;2023-04-06T03:53:32;101350.84;;;4.86;72.10
64095;BME280;50353;51.420;5.682;2023-04-06T03:55:58;101345.63;;;4.86;71.19
64095;BME280;50353;51.420;5.682;2023-04-06T03:58:23;101346.84;;;5.06;70.54
64095;BME280;50353;51.420;5.682;2023-04-06T04:00:48;101354.88;;;5.30;69.78
64095;BME280;50353;51.420;5.682;2023-04-06T04:03:14;101351.06;;;5.10;69.73
64095;BME280;50353;51.420;5.682;2023-04-06T04:05:39;101349.81;;;4.94;71.37
64095;BME280;50353;51.420;5.682;2023-04-06T04:08:04;101345.31;;;4.97;71.51
64095;BME280;50353;51.420;5.682;2023-04-06T04:10:30;101348.47;;;5.10;70.99
64095;BME280;50353;51.420;5.682;2023-04-06T04:12:55;101350.97;;;5.13;70.86
64095;BME280;50353;51.420;5.682;2023-04-06T04:15:21;101353.56;;;5.15;69.25
64095;BME280;50353;51.420;5.682;2023-04-06T04:17:46;101355.78;;;4.97;70.33
64095;BME280;50353;51.420;5.682;2023-04-06T04:20:14;101358.75;;;5.16;69.88
64095;BME280;50353;51.420;5.682;2023-04-06T04:22:40;101358.22;;;5.05;70.02
64095;BME280;50353;51.420;5.682;2023-04-06T04:25:05;101361.94;;;5.28;69.11
64095;BME280;50353;51.420;5.682;2023-04-06T04:27:31;101364.34;;;5.34;68.61
64095;BME280;50353;51.420;5.682;2023-04-06T04:29:56;101354.00;;;4.99;70.85
64095;BME280;50353;51.420;5.682;2023-04-06T04:32:21;101359.78;;;5.11;71.76
64095;BME280;50353;51.420;5.682;2023-04-06T04:34:46;101356.19;;;4.83;72.38
64095;BME280;50353;51.420;5.682;2023-04-06T04:37:12;101357.03;;;4.84;71.35
64095;BME280;50353;51.420;5.682;2023-04-06T04:39:37;101358.94;;;5.10;70.17
64095;BME280;50353;51.420;5.682;2023-04-06T04:42:02;101355.81;;;5.27;69.20
64095;BME280;50353;51.420;5.682;2023-04-06T04:44:28;101356.88;;;4.90;70.31
64095;BME280;50353;51.420;5.682;2023-04-06T04:46:53;101356.00;;;4.91;70.08
64095;BME280;50353;51.420;5.682;2023-04-06T04:49:18;101354.41;;;5.15;69.05
64095;BME280;50353;51.420;5.682;2023-04-06T04:51:43;101355.31;;;5.14;69.94
64095;BME280;50353;51.420;5.682;2023-04-06T04:54:09;101356.53;;;5.02;70.04
64095;BME280;50353;51.420;5.682;2023-04-06T04:56:34;101347.63;;;5.08;71.13
64095;BME280;50353;51.420;5.682;2023-04-06T04:59:00;101350.44;;;5.32;69.71
64095;BME280;50353;51.420;5.682;2023-04-06T05:01:25;101349.56;;;5.01;70.72
64095;BME280;50353;51.420;5.682;2023-04-06T05:03:50;101349.66;;;4.98;70.71
64095;BME280;50353;51.420;5.682;2023-04-06T05:06:16;101357.16;;;5.11;70.16
64095;BME280;50353;51.420;5.682;2023-04-06T05:08:41;101350.44;;;5.02;70.63
64095;BME280;50353;51.420;5.682;2023-04-06T05:11:07;101352.50;;;4.90;70.55
64095;BME280;50353;51.420;5.682;2023-04-06T05:13:32;101343.69;;;4.93;71.25
64095;BME280;50353;51.420;5.682;2023-04-06T05:15:57;101348.50;;;5.08;70.78
64095;BME280;50353;51.420;5.682;2023-04-06T05:18:23;101347.53;;;5.11;71.35
64095;BME280;50353;51.420;5.682;2023-04-06T05:20:48;101348.16;;;5.19;70.98
64095;BME280;50353;51.420;5.682;2023-04-06T05:23:14;101347.19;;;4.92;71.92
64095;BME280;50353;51.420;5.682;2023-04-06T05:25:40;101349.75;;;4.95;72.14
64095;BME280;50353;51.420;5.682;2023-04-06T05:28:05;101350.13;;;5.13;71.45
64095;BME280;50353;51.420;5.682;2023-04-06T05:30:31;101344.22;;;5.34;69.90
64095;BME280;50353;51.420;5.682;2023-04-06T05:32:56;101349.78;;;5.25;70.69
64095;BME280;50353;51.420;5.682;2023-04-06T05:35:21;101345.56;;;5.48;69.45
64095;BME280;50353;51.420;5.682;2023-04-06T05:37:46;101345.69;;;5.45;70.03
64095;BME280;50353;51.420;5.682;2023-04-06T05:40:12;101339.88;;;5.63;69.64
64095;BME280;50353;51.420;5.682;2023-04-06T05:42:41;101350.28;;;5.36;71.46
64095;BME280;50353;51.420;5.682;2023-04-06T05:45:08;101331.69;;;5.72;69.52
64095;BME280;50353;51.420;5.682;2023-04-06T05:47:34;101342.50;;;5.63;69.28
64095;BME280;50353;51.420;5.682;2023-04-06T05:49:59;101340.44;;;5.45;70.85
64095;BME280;50353;51.420;5.682;2023-04-06T05:52:25;101341.44;;;5.40;70.72
64095;BME280;50353;51.420;5.682;2023-04-06T05:54:50;101336.97;;;5.42;71.03
64095;BME280;50353;51.420;5.682;2023-04-06T05:57:16;101341.22;;;5.47;70.64
64095;BME280;50353;51.420;5.682;2023-04-06T05:59:44;101337.31;;;5.88;69.48
64095;BME280;50353;51.420;5.682;2023-04-06T06:02:09;101340.34;;;5.76;69.96
64095;BME280;50353;51.420;5.682;2023-04-06T06:04:34;101347.25;;;5.79;69.77
64095;BME280;50353;51.420;5.682;2023-04-06T06:07:00;101344.25;;;6.18;68.79
64095;BME280;50353;51.420;5.682;2023-04-06T06:09:25;101334.19;;;6.05;69.27
64095;BME280;50353;51.420;5.682;2023-04-06T06:11:51;101335.41;;;5.93;69.32
64095;BME280;50353;51.420;5.682;2023-04-06T06:14:16;101330.59;;;5.80;71.75
64095;BME280;50353;51.420;5.682;2023-04-06T06:16:41;101333.56;;;5.96;69.79
64095;BME280;50353;51.420;5.682;2023-04-06T06:19:07;101335.72;;;6.11;68.66
64095;BME280;50353;51.420;5.682;2023-04-06T06:21:32;101347.47;;;5.42;71.26
64095;BME280;50353;51.420;5.682;2023-04-06T06:23:57;101346.88;;;5.63;71.45
64095;BME280;50353;51.420;5.682;2023-04-06T06:26:23;101345.22;;;5.87;71.25
64095;BME280;50353;51.420;5.682;2023-04-06T06:28:48;101333.69;;;5.92;70.19
64095;BME280;50353;51.420;5.682;2023-04-06T06:31:13;101338.13;;;6.17;68.82
64095;BME280;50353;51.420;5.682;2023-04-06T06:33:39;101336.44;;;6.41;67.79
64095;BME280;50353;51.420;5.682;2023-04-06T06:36:04;101340.09;;;6.63;66.13
64095;BME280;50353;51.420;5.682;2023-04-06T06:38:30;101337.19;;;6.70;66.26
64095;BME280;50353;51.420;5.682;2023-04-06T06:40:55;101342.94;;;6.56;66.88
64095;BME280;50353;51.420;5.682;2023-04-06T06:43:21;101339.72;;;6.48;67.42
64095;BME280;50353;51.420;5.682;2023-04-06T06:45:46;101341.16;;;6.57;67.45
64095;BME280;50353;51.420;5.682;2023-04-06T06:48:11;101333.66;;;6.71;66.70
64095;BME280;50353;51.420;5.682;2023-04-06T06:50:37;101336.59;;;6.62;67.83
64095;BME280;50353;51.420;5.682;2023-04-06T06:53:02;101346.31;;;6.60;68.40
64095;BME280;50353;51.420;5.682;2023-04-06T06:55:27;101339.47;;;6.56;68.17
64095;BME280;50353;51.420;5.682;2023-04-06T06:57:53;101335.63;;;6.88;66.84
64095;BME280;50353;51.420;5.682;2023-04-06T07:00:19;101335.47;;;6.44;67.94
64095;BME280;50353;51.420;5.682;2023-04-06T07:02:49;101329.91;;;6.53;67.68
64095;BME280;50353;51.420;5.682;2023-04-06T07:05:15;101329.88;;;6.79;67.26
64095;BME280;50353;51.420;5.682;2023-04-06T07:07:40;101331.03;;;6.95;66.55
64095;BME280;50353;51.420;5.682;2023-04-06T07:10:06;101327.16;;;6.56;67.25
64095;BME280;50353;51.420;5.682;2023-04-06T07:12:32;101327.03;;;6.85;67.71
64095;BME280;50353;51.420;5.682;2023-04-06T07:14:58;101328.72;;;6.62;68.05
64095;BME280;50353;51.420;5.682;2023-04-06T07:17:23;101328.06;;;6.81;66.42
64095;BME280;50353;51.420;5.682;2023-04-06T07:19:48;101324.22;;;6.66;67.06
64095;BME280;50353;51.420;5.682;2023-04-06T07:22:14;101324.00;;;6.96;66.66
64095;BME280;50353;51.420;5.682;2023-04-06T07:24:40;101317.50;;;6.82;67.01
64095;BME280;50353;51.420;5.682;2023-04-06T07:27:05;101316.75;;;7.02;66.15
64095;BME280;50353;51.420;5.682;2023-04-06T07:29:31;101321.66;;;6.88;68.02
64095;BME280;50353;51.420;5.682;2023-04-06T07:31:56;101318.44;;;7.27;67.17
64095;BME280;50353;51.420;5.682;2023-04-06T07:34:21;101311.88;;;7.37;66.62
64095;BME280;50353;51.420;5.682;2023-04-06T07:36:47;101315.22;;;7.42;66.28
64095;BME280;50353;51.420;5.682;2023-04-06T07:39:12;101310.06;;;7.39;65.26
64095;BME280;50353;51.420;5.682;2023-04-06T07:41:38;101310.75;;;7.44;65.99
64095;BME280;50353;51.420;5.682;2023-04-06T07:44:03;101319.00;;;7.35;66.65
64095;BME280;50353;51.420;5.682;2023-04-06T07:46:29;101319.91;;;7.34;66.01
64095;BME280;50353;51.420;5.682;2023-04-06T07:48:56;101315.13;;;7.66;64.59
64095;BME280;50353;51.420;5.682;2023-04-06T07:51:22;101306.94;;;7.74;64.83
64095;BME280;50353;51.420;5.682;2023-04-06T07:53:47;101313.06;;;7.52;65.07
64095;BME280;50353;51.420;5.682;2023-04-06T07:56:12;101314.13;;;7.70;64.69
64095;BME280;50353;51.420;5.682;2023-04-06T07:58:38;101309.94;;;7.87;65.23
64095;BME280;50353;51.420;5.682;2023-04-06T08:01:03;101312.31;;;7.93;65.40
64095;BME280;50353;51.420;5.682;2023-04-06T08:03:29;101313.44;;;7.65;64.52
64095;BME280;50353;51.420;5.682;2023-04-06T08:05:54;101318.03;;;7.14;66.62
64095;BME280;50353;51.420;5.682;2023-04-06T08:08:20;101320.94;;;7.30;65.55
64095;BME280;50353;51.420;5.682;2023-04-06T08:10:47;101312.44;;;7.45;64.63
64095;BME280;50353;51.420;5.682;2023-04-06T08:13:12;101313.56;;;7.84;63.98
64095;BME280;50353;51.420;5.682;2023-04-06T08:15:37;101307.47;;;7.82;66.19
64095;BME280;50353;51.420;5.682;2023-04-06T08:18:03;101309.75;;;7.91;64.39
64095;BME280;50353;51.420;5.682;2023-04-06T08:20:28;101310.19;;;7.81;65.72
64095;BME280;50353;51.420;5.682;2023-04-06T08:22:53;101317.34;;;7.77;64.77
64095;BME280;50353;51.420;5.682;2023-04-06T08:25:19;101312.44;;;7.90;64.78
64095;BME280;50353;51.420;5.682;2023-04-06T08:27:44;101314.19;;;7.89;64.95
64095;BME280;50353;51.420;5.682;2023-04-06T08:30:10;101317.03;;;8.48;63.38
64095;BME280;50353;51.420;5.682;2023-04-06T08:32:35;101315.97;;;8.52;63.21
64095;BME280;50353;51.420;5.682;2023-04-06T08:35:01;101318.97;;;8.43;64.15
64095;BME280;50353;51.420;5.682;2023-04-06T08:37:26;101322.91;;;8.33;63.46
64095;BME280;50353;51.420;5.682;2023-04-06T08:39:51;101323.31;;;8.23;65.24
64095;BME280;50353;51.420;5.682;2023-04-06T08:42:20;101320.84;;;8.80;62.37
64095;BME280;50353;51.420;5.682;2023-04-06T08:44:48;101320.09;;;8.98;61.11
64095;BME280;50353;51.420;5.682;2023-04-06T08:47:13;101324.63;;;8.75;64.19
64095;BME280;50353;51.420;5.682;2023-04-06T08:49:40;101319.03;;;8.83;62.96
64095;BME280;50353;51.420;5.682;2023-04-06T08:52:06;101321.44;;;9.06;62.57
64095;BME280;50353;51.420;5.682;2023-04-06T08:54:33;101322.03;;;8.54;64.09
64095;BME280;50353;51.420;5.682;2023-04-06T08:56:58;101318.50;;;8.74;63.44
64095;BME280;50353;51.420;5.682;2023-04-06T08:59:25;101325.97;;;9.23;61.81
64095;BME280;50353;51.420;5.682;2023-04-06T09:01:51;101325.16;;;9.21;60.95
64095;BME280;50353;51.420;5.682;2023-04-06T09:04:18;101322.81;;;8.96;62.03
64095;BME280;50353;51.420;5.682;2023-04-06T09:06:43;101327.09;;;9.37;60.22
64095;BME280;50353;51.420;5.682;2023-04-06T09:09:08;101322.91;;;9.33;60.36
64095;BME280;50353;51.420;5.682;2023-04-06T09:11:48;101314.97;;;9.69;58.99
64095;BME280;50353;51.420;5.682;2023-04-06T09:14:14;101327.16;;;8.97;61.69
64095;BME280;50353;51.420;5.682;2023-04-06T09:16:42;101328.78;;;9.19;60.63
64095;BME280;50353;51.420;5.682;2023-04-06T09:19:07;101335.63;;;9.23;60.65
64095;BME280;50353;51.420;5.682;2023-04-06T09:21:33;101323.09;;;8.90;62.71
64095;BME280;50353;51.420;5.682;2023-04-06T09:24:00;101328.72;;;9.01;63.86
64095;BME280;50353;51.420;5.682;2023-04-06T09:26:25;101327.44;;;9.29;62.18
64095;BME280;50353;51.420;5.682;2023-04-06T09:28:57;101321.81;;;9.73;60.77
64095;BME280;50353;51.420;5.682;2023-04-06T09:31:30;101323.56;;;9.55;61.88
64095;BME280;50353;51.420;5.682;2023-04-06T09:33:57;101313.00;;;10.09;59.04
64095;BME280;50353;51.420;5.682;2023-04-06T09:36:31;101317.19;;;10.31;58.04
64095;BME280;50353;51.420;5.682;2023-04-06T09:39:06;101313.84;;;10.27;59.21
64095;BME280;50353;51.420;5.682;2023-04-06T09:41:36;101309.56;;;10.07;60.54
64095;BME280;50353;51.420;5.682;2023-04-06T09:44:11;101311.97;;;10.47;58.66
64095;BME280;50353;51.420;5.682;2023-04-06T09:46:41;101313.41;;;10.70;57.80
64095;BME280;50353;51.420;5.682;2023-04-06T09:49:08;101313.41;;;10.70;58.01
64095;BME280;50353;51.420;5.682;2023-04-06T09:51:39;101321.03;;;10.76;58.28
64095;BME280;50353;51.420;5.682;2023-04-06T09:54:06;101316.44;;;10.80;59.25
64095;BME280;50353;51.420;5.682;2023-04-06T09:56:38;101316.28;;;10.83;58.26
64095;BME280;50353;51.420;5.682;2023-04-06T09:59:13;101313.06;;;10.94;58.20
64095;BME280;50353;51.420;5.682;2023-04-06T10:01:39;101319.63;;;11.03;58.32
64095;BME280;50353;51.420;5.682;2023-04-06T10:04:32;101322.81;;;11.25;58.21
64095;BME280;50353;51.420;5.682;2023-04-06T10:07:02;101316.50;;;10.62;59.81
64095;BME280;50353;51.420;5.682;2023-04-06T10:09:29;101325.56;;;10.90;60.99
64095;BME280;50353;51.420;5.682;2023-04-06T10:12:04;101325.38;;;11.27;59.26
64095;BME280;50353;51.420;5.682;2023-04-06T10:14:33;101323.19;;;10.86;60.12
64095;BME280;50353;51.420;5.682;2023-04-06T10:17:00;101325.63;;;11.06;60.99
64095;BME280;50353;51.420;5.682;2023-04-06T10:19:30;101324.69;;;11.07;60.32
64095;BME280;50353;51.420;5.682;2023-04-06T10:21:58;101329.00;;;11.08;59.14
64095;BME280;50353;51.420;5.682;2023-04-06T10:24:24;101328.97;;;11.10;59.81
64095;BME280;50353;51.420;5.682;2023-04-06T10:26:57;101325.66;;;10.89;61.69
64095;BME280;50353;51.420;5.682;2023-04-06T10:29:23;101331.16;;;11.18;60.40
64095;BME280;50353;51.420;5.682;2023-04-06T10:31:49;101327.16;;;11.26;59.74
64095;BME280;50353;51.420;5.682;2023-04-06T10:34:15;101329.25;;;10.88;61.64
64095;BME280;50353;51.420;5.682;2023-04-06T10:36:41;101325.97;;;10.67;63.13
64095;BME280;50353;51.420;5.682;2023-04-06T10:39:06;101339.09;;;11.18;61.53
64095;BME280;50353;51.420;5.682;2023-04-06T10:41:37;101340.38;;;10.43;64.56
64095;BME280;50353;51.420;5.682;2023-04-06T10:44:06;101336.06;;;10.92;62.15
64095;BME280;50353;51.420;5.682;2023-04-06T10:46:35;101329.41;;;10.85;63.44
64095;BME280;50353;51.420;5.682;2023-04-06T10:49:13;101334.13;;;10.62;66.56
64095;BME280;50353;51.420;5.682;2023-04-06T10:51:39;101331.81;;;10.56;66.29
64095;BME280;50353;51.420;5.682;2023-04-06T10:54:06;101331.72;;;10.22;68.42
64095;BME280;50353;51.420;5.682;2023-04-06T10:56:32;101335.97;;;10.07;69.44
64095;BME280;50353;51.420;5.682;2023-04-06T10:58:59;101328.69;;;10.30;68.49
64095;BME280;50353;51.420;5.682;2023-04-06T11:01:25;101328.81;;;10.46;68.03
64095;BME280;50353;51.420;5.682;2023-04-06T11:03:54;101315.34;;;10.51;68.20
64095;BME280;50353;51.420;5.682;2023-04-06T11:06:25;101323.53;;;10.62;67.98
64095;BME280;50353;51.420;5.682;2023-04-06T11:08:52;101324.16;;;10.67;67.54
64095;BME280;50353;51.420;5.682;2023-04-06T11:11:19;101328.53;;;10.33;68.91
64095;BME280;50353;51.420;5.682;2023-04-06T11:13:50;101317.22;;;10.48;67.36
64095;BME280;50353;51.420;5.682;2023-04-06T11:16:20;101320.22;;;10.06;72.01
64095;BME280;50353;51.420;5.682;2023-04-06T11:18:50;101323.91;;;10.38;69.54
64095;BME280;50353;51.420;5.682;2023-04-06T11:21:16;101320.97;;;10.44;69.95
64095;BME280;50353;51.420;5.682;2023-04-06T11:23:42;101322.81;;;10.42;69.94
64095;BME280;50353;51.420;5.682;2023-04-06T11:26:14;101316.66;;;10.24;71.36
64095;BME280;50353;51.420;5.682;2023-04-06T11:28:41;101311.66;;;10.18;72.39
64095;BME280;50353;51.420;5.682;2023-04-06T11:31:07;101312.69;;;10.15;71.91
64095;BME280;50353;51.420;5.682;2023-04-06T11:33:39;101307.03;;;10.41;72.60
64095;BME280;50353;51.420;5.682;2023-04-06T11:36:05;101315.94;;;10.03;73.99
64095;BME280;50353;51.420;5.682;2023-04-06T11:38:33;101306.47;;;9.99;74.55
64095;BME280;50353;51.420;5.682;2023-04-06T11:40:58;101308.66;;;10.08;72.97
64095;BME280;50353;51.420;5.682;2023-04-06T11:43:31;101315.66;;;10.09;74.02
64095;BME280;50353;51.420;5.682;2023-04-06T11:46:00;101310.78;;;9.65;76.18
64095;BME280;50353;51.420;5.682;2023-04-06T11:48:27;101302.59;;;9.89;73.24
64095;BME280;50353;51.420;5.682;2023-04-06T11:50:57;101302.97;;;9.44;75.55
64095;BME280;50353;51.420;5.682;2023-04-06T11:53:23;101303.03;;;9.43;76.33
64095;BME280;50353;51.420;5.682;2023-04-06T11:55:49;101298.91;;;10.09;76.17
64095;BME280;50353;51.420;5.682;2023-04-06T11:58:14;101291.94;;;10.25;76.02
64095;BME280;50353;51.420;5.682;2023-04-06T12:00:40;101294.69;;;10.06;77.90
64095;BME280;50353;51.420;5.682;2023-04-06T12:03:10;101298.88;;;10.10;77.07
64095;BME280;50353;51.420;5.682;2023-04-06T12:05:35;101293.13;;;10.02;79.15
64095;BME280;50353;51.420;5.682;2023-04-06T12:08:01;101294.66;;;9.71;81.11
64095;BME280;50353;51.420;5.682;2023-04-06T12:10:26;101284.13;;;9.52;81.36
64095;BME280;50353;51.420;5.682;2023-04-06T12:12:52;101292.94;;;9.70;80.30
64095;BME280;50353;51.420;5.682;2023-04-06T12:15:17;101285.34;;;9.64;81.82
64095;BME280;50353;51.420;5.682;2023-04-06T12:17:42;101282.69;;;9.81;82.07
64095;BME280;50353;51.420;5.682;2023-04-06T12:20:08;101283.03;;;10.10;81.35
64095;BME280;50353;51.420;5.682;2023-04-06T12:22:33;101287.97;;;9.81;80.42
64095;BME280;50353;51.420;5.682;2023-04-06T12:24:59;101279.72;;;9.70;80.75
64095;BME280;50353;51.420;5.682;2023-04-06T12:27:24;101275.00;;;9.77;83.21
64095;BME280;50353;51.420;5.682;2023-04-06T12:29:50;101273.22;;;9.77;84.29
64095;BME280;50353;51.420;5.682;2023-04-06T12:32:15;101279.63;;;9.37;84.93
64095;BME280;50353;51.420;5.682;2023-04-06T12:34:41;101270.66;;;9.93;81.61
64095;BME280;50353;51.420;5.682;2023-04-06T12:37:06;101268.19;;;10.08;81.05
64095;BME280;50353;51.420;5.682;2023-04-06T12:39:31;101269.16;;;9.53;83.52
64095;BME280;50353;51.420;5.682;2023-04-06T12:41:57;101275.25;;;9.90;80.41
64095;BME280;50353;51.420;5.682;2023-04-06T12:44:22;101273.41;;;9.55;82.54
64095;BME280;50353;51.420;5.682;2023-04-06T12:46:48;101267.63;;;9.84;81.70
64095;BME280;50353;51.420;5.682;2023-04-06T12:49:13;101273.50;;;9.54;84.10
64095;BME280;50353;51.420;5.682;2023-04-06T12:51:41;101268.94;;;9.57;83.22